Terminal Aerodrome Forecast
Issued by NWS North Platte, NE

Home | Current Version | Previous Version | Text Only | Print | Product List | Glossary On
Versions: 1 2 3 4 5 6 7 8 9 10 11 12 13 14 15 16 17 18 19 20
000
FTUS43 KLBF 300520
TAFLBF
TAF
KLBF 300520Z 3006/3106 13005KT P6SM SKC
     FM301200 VRB03KT 2SM BR BKN002
     FM301400 VRB05KT P6SM SCT002
     FM301500 19008KT P6SM SKC
     FM301800 18015G24KT P6SM SCT250
     FM310000 16012KT P6SM SCT250=

USA.gov is the U.S. government's official web portal to all federal, state and local government web resources and services.